sensor_id;sensor_type;location;lat;lon;timestamp;pressure;altitude;pressure_sealevel;temperature;humidity
38912;BME280;28444;48.056;14.408;2023-05-10T00:01:34;96964.28;;;10.33;76.15
38912;BME280;28444;48.056;14.408;2023-05-10T00:04:22;96954.50;;;10.30;76.57
38912;BME280;28444;48.056;14.408;2023-05-10T00:07:09;96951.19;;;10.32;76.21
38912;BME280;28444;48.056;14.408;2023-05-10T00:09:56;96938.38;;;10.34;76.83
38912;BME280;28444;48.056;14.408;2023-05-10T00:12:43;96942.56;;;10.35;76.26
38912;BME280;28444;48.056;14.408;2023-05-10T00:15:30;96951.91;;;10.32;76.77
38912;BME280;28444;48.056;14.408;2023-05-10T00:18:17;96948.25;;;10.20;76.60
38912;BME280;28444;48.056;14.408;2023-05-10T00:21:04;96946.41;;;10.23;77.16
38912;BME280;28444;48.056;14.408;2023-05-10T00:23:51;96950.72;;;10.16;77.43
38912;BME280;28444;48.056;14.408;2023-05-10T00:26:38;96946.53;;;10.15;76.73
38912;BME280;28444;48.056;14.408;2023-05-10T00:29:25;96949.56;;;10.19;76.86
38912;BME280;28444;48.056;14.408;2023-05-10T00:32:12;96943.22;;;10.17;76.97
38912;BME280;28444;48.056;14.408;2023-05-10T00:35:00;96946.69;;;10.07;77.23
38912;BME280;28444;48.056;14.408;2023-05-10T00:37:47;96954.72;;;9.96;77.24
38912;BME280;28444;48.056;14.408;2023-05-10T00:40:35;96957.75;;;10.00;77.06
38912;BME280;28444;48.056;14.408;2023-05-10T00:43:22;96946.53;;;9.96;77.86
38912;BME280;28444;48.056;14.408;2023-05-10T00:46:09;96958.59;;;9.93;77.53
38912;BME280;28444;48.056;14.408;2023-05-10T00:48:57;96964.78;;;9.93;77.25
38912;BME280;28444;48.056;14.408;2023-05-10T00:51:44;96969.50;;;9.93;77.04
38912;BME280;28444;48.056;14.408;2023-05-10T00:54:31;96962.91;;;9.96;77.81
38912;BME280;28444;48.056;14.408;2023-05-10T00:57:19;96964.06;;;9.93;77.45
38912;BME280;28444;48.056;14.408;2023-05-10T01:00:07;96977.66;;;9.83;77.12
38912;BME280;28444;48.056;14.408;2023-05-10T01:02:54;96983.59;;;9.89;77.81
38912;BME280;28444;48.056;14.408;2023-05-10T01:05:41;96990.34;;;9.88;77.37
38912;BME280;28444;48.056;14.408;2023-05-10T01:08:28;96996.38;;;9.86;77.64
38912;BME280;28444;48.056;14.408;2023-05-10T01:11:15;96997.50;;;9.83;77.16
38912;BME280;28444;48.056;14.408;2023-05-10T01:14:02;97005.28;;;9.87;77.34
38912;BME280;28444;48.056;14.408;2023-05-10T01:16:50;97004.22;;;9.73;77.74
38912;BME280;28444;48.056;14.408;2023-05-10T01:19:37;97011.69;;;9.72;77.57
38912;BME280;28444;48.056;14.408;2023-05-10T01:26:10;97017.31;;;9.74;77.66
38912;BME280;28444;48.056;14.408;2023-05-10T01:32:16;97015.53;;;9.59;78.82
38912;BME280;28444;48.056;14.408;2023-05-10T01:35:14;97030.00;;;9.52;78.79
38912;BME280;28444;48.056;14.408;2023-05-10T01:38:38;97042.38;;;9.53;78.72
38912;BME280;28444;48.056;14.408;2023-05-10T01:44:56;97043.81;;;9.54;78.88
38912;BME280;28444;48.056;14.408;2023-05-10T01:47:50;97040.50;;;9.29;81.02
38912;BME280;28444;48.056;14.408;2023-05-10T01:50:43;97035.75;;;9.29;81.87
38912;BME280;28444;48.056;14.408;2023-05-10T01:53:31;97027.53;;;9.20;82.50
38912;BME280;28444;48.056;14.408;2023-05-10T01:56:24;97020.97;;;9.23;82.08
38912;BME280;28444;48.056;14.408;2023-05-10T01:59:15;97023.94;;;9.17;82.33
38912;BME280;28444;48.056;14.408;2023-05-10T02:02:04;97031.72;;;9.21;82.16
38912;BME280;28444;48.056;14.408;2023-05-10T02:04:53;97029.25;;;9.15;82.71
38912;BME280;28444;48.056;14.408;2023-05-10T02:07:42;97035.81;;;9.12;82.28
38912;BME280;28444;48.056;14.408;2023-05-10T02:10:30;97029.56;;;9.19;82.42
38912;BME280;28444;48.056;14.408;2023-05-10T02:13:18;97020.13;;;9.30;82.27
38912;BME280;28444;48.056;14.408;2023-05-10T02:16:06;97021.72;;;9.33;82.67
38912;BME280;28444;48.056;14.408;2023-05-10T02:18:54;97018.16;;;9.40;82.11
38912;BME280;28444;48.056;14.408;2023-05-10T02:21:44;97019.75;;;9.43;82.18
38912;BME280;28444;48.056;14.408;2023-05-10T02:24:33;97022.19;;;9.39;82.81
38912;BME280;28444;48.056;14.408;2023-05-10T02:27:22;97019.75;;;9.43;83.00
38912;BME280;28444;48.056;14.408;2023-05-10T02:30:11;97021.56;;;9.31;84.62
38912;BME280;28444;48.056;14.408;2023-05-10T02:32:59;97024.41;;;9.23;84.99
38912;BME280;28444;48.056;14.408;2023-05-10T02:35:46;97023.41;;;9.28;84.97
38912;BME280;28444;48.056;14.408;2023-05-10T02:38:34;97029.19;;;9.32;85.52
38912;BME280;28444;48.056;14.408;2023-05-10T02:41:22;97024.19;;;9.38;84.27
38912;BME280;28444;48.056;14.408;2023-05-10T02:44:11;97024.97;;;9.49;84.24
38912;BME280;28444;48.056;14.408;2023-05-10T02:47:00;97024.84;;;9.56;83.43
38912;BME280;28444;48.056;14.408;2023-05-10T02:49:48;97019.81;;;9.53;83.25
38912;BME280;28444;48.056;14.408;2023-05-10T02:52:46;97020.13;;;9.57;83.08
38912;BME280;28444;48.056;14.408;2023-05-10T02:55:39;97019.88;;;9.62;82.38
38912;BME280;28444;48.056;14.408;2023-05-10T02:58:27;97019.88;;;9.62;83.33
38912;BME280;28444;48.056;14.408;2023-05-10T03:01:14;97020.84;;;9.57;81.84
38912;BME280;28444;48.056;14.408;2023-05-10T03:04:01;97018.72;;;9.65;82.87
38912;BME280;28444;48.056;14.408;2023-05-10T03:06:48;97026.06;;;9.73;83.08
38912;BME280;28444;48.056;14.408;2023-05-10T03:09:35;97021.91;;;9.72;83.17
38912;BME280;28444;48.056;14.408;2023-05-10T03:17:33;97025.22;;;9.80;85.40
38912;BME280;28444;48.056;14.408;2023-05-10T03:20:32;97023.41;;;9.92;84.94
38912;BME280;28444;48.056;14.408;2023-05-10T03:23:30;97028.16;;;9.92;84.85
38912;BME280;28444;48.056;14.408;2023-05-10T03:26:25;97028.53;;;9.78;85.70
38912;BME280;28444;48.056;14.408;2023-05-10T03:29:13;97025.56;;;9.94;85.60
38912;BME280;28444;48.056;14.408;2023-05-10T03:32:01;97022.28;;;10.05;84.69
38912;BME280;28444;48.056;14.408;2023-05-10T03:34:48;97027.34;;;10.08;83.42
38912;BME280;28444;48.056;14.408;2023-05-10T03:37:38;97036.69;;;10.15;83.27
38912;BME280;28444;48.056;14.408;2023-05-10T03:40:28;97035.09;;;10.12;83.61
38912;BME280;28444;48.056;14.408;2023-05-10T03:43:18;97038.97;;;9.99;83.53
38912;BME280;28444;48.056;14.408;2023-05-10T03:46:05;97037.84;;;10.02;83.73
38912;BME280;28444;48.056;14.408;2023-05-10T03:48:52;97030.50;;;10.05;83.90
38912;BME280;28444;48.056;14.408;2023-05-10T03:51:39;97046.88;;;10.05;84.18
38912;BME280;28444;48.056;14.408;2023-05-10T03:54:26;97035.81;;;10.03;84.81
38912;BME280;28444;48.056;14.408;2023-05-10T03:57:13;97039.81;;;10.02;87.52
38912;BME280;28444;48.056;14.408;2023-05-10T04:00:00;97051.75;;;9.97;88.08
38912;BME280;28444;48.056;14.408;2023-05-10T04:02:47;97051.59;;;9.95;88.23
38912;BME280;28444;48.056;14.408;2023-05-10T04:05:34;97054.94;;;10.12;87.06
38912;BME280;28444;48.056;14.408;2023-05-10T04:08:21;97054.94;;;10.03;87.05
38912;BME280;28444;48.056;14.408;2023-05-10T04:11:09;97050.75;;;10.02;86.98
38912;BME280;28444;48.056;14.408;2023-05-10T04:13:56;97051.78;;;10.16;86.44
38912;BME280;28444;48.056;14.408;2023-05-10T04:16:43;97043.19;;;10.20;87.14
38912;BME280;28444;48.056;14.408;2023-05-10T04:19:30;97055.16;;;10.34;86.14
38912;BME280;28444;48.056;14.408;2023-05-10T04:22:18;97047.88;;;10.46;85.09
38912;BME280;28444;48.056;14.408;2023-05-10T04:25:05;97052.91;;;10.50;86.11
38912;BME280;28444;48.056;14.408;2023-05-10T04:27:52;97051.19;;;10.54;85.36
38912;BME280;28444;48.056;14.408;2023-05-10T04:30:39;97051.91;;;10.55;85.17
38912;BME280;28444;48.056;14.408;2023-05-10T04:33:27;97055.94;;;10.64;84.76
38912;BME280;28444;48.056;14.408;2023-05-10T04:36:14;97053.78;;;10.62;87.04
38912;BME280;28444;48.056;14.408;2023-05-10T04:39:01;97064.56;;;10.50;88.74
38912;BME280;28444;48.056;14.408;2023-05-10T04:41:49;97066.44;;;10.48;88.29
38912;BME280;28444;48.056;14.408;2023-05-10T04:44:36;97059.38;;;10.54;86.08
38912;BME280;28444;48.056;14.408;2023-05-10T04:47:23;97062.69;;;10.53;87.01
38912;BME280;28444;48.056;14.408;2023-05-10T04:50:10;97063.56;;;10.65;87.36
38912;BME280;28444;48.056;14.408;2023-05-10T04:52:57;97070.19;;;10.62;87.29
38912;BME280;28444;48.056;14.408;2023-05-10T04:55:44;97063.00;;;10.67;86.99
38912;BME280;28444;48.056;14.408;2023-05-10T04:58:31;97069.63;;;10.73;87.83
38912;BME280;28444;48.056;14.408;2023-05-10T05:01:18;97072.94;;;10.81;86.85
38912;BME280;28444;48.056;14.408;2023-05-10T05:04:05;97073.34;;;10.78;86.63
38912;BME280;28444;48.056;14.408;2023-05-10T05:06:52;97074.97;;;10.71;86.86
38912;BME280;28444;48.056;14.408;2023-05-10T05:09:39;97071.66;;;10.82;85.00
38912;BME280;28444;48.056;14.408;2023-05-10T05:12:26;97069.31;;;10.89;85.32
38912;BME280;28444;48.056;14.408;2023-05-10T05:15:13;97076.69;;;10.76;86.10
38912;BME280;28444;48.056;14.408;2023-05-10T05:18:01;97078.09;;;10.77;84.92
38912;BME280;28444;48.056;14.408;2023-05-10T05:20:49;97082.88;;;10.87;84.27
38912;BME280;28444;48.056;14.408;2023-05-10T05:23:36;97083.16;;;10.91;83.67
38912;BME280;28444;48.056;14.408;2023-05-10T05:26:22;97094.66;;;10.89;84.31
38912;BME280;28444;48.056;14.408;2023-05-10T05:29:09;97106.22;;;10.97;84.89
38912;BME280;28444;48.056;14.408;2023-05-10T05:31:56;97104.03;;;10.96;84.88
38912;BME280;28444;48.056;14.408;2023-05-10T05:34:46;97105.31;;;10.85;82.77
38912;BME280;28444;48.056;14.408;2023-05-10T05:37:33;97111.53;;;10.95;83.44
38912;BME280;28444;48.056;14.408;2023-05-10T05:40:20;97116.84;;;11.03;82.09
38912;BME280;28444;48.056;14.408;2023-05-10T05:43:07;97117.13;;;11.07;81.17
38912;BME280;28444;48.056;14.408;2023-05-10T05:45:55;97111.97;;;11.11;80.32
38912;BME280;28444;48.056;14.408;2023-05-10T05:48:42;97118.00;;;11.19;79.95
38912;BME280;28444;48.056;14.408;2023-05-10T05:51:29;97127.94;;;11.24;79.81
38912;BME280;28444;48.056;14.408;2023-05-10T05:54:16;97123.47;;;11.29;80.11
38912;BME280;28444;48.056;14.408;2023-05-10T05:57:03;97117.56;;;11.23;79.40
38912;BME280;28444;48.056;14.408;2023-05-10T05:59:50;97121.16;;;11.25;80.57
38912;BME280;28444;48.056;14.408;2023-05-10T06:02:36;97128.38;;;11.30;81.75
38912;BME280;28444;48.056;14.408;2023-05-10T06:05:24;97124.47;;;11.43;81.26
38912;BME280;28444;48.056;14.408;2023-05-10T06:08:10;97127.06;;;11.41;81.40
38912;BME280;28444;48.056;14.408;2023-05-10T06:10:57;97132.50;;;11.51;81.75
38912;BME280;28444;48.056;14.408;2023-05-10T06:13:44;97125.16;;;11.53;82.42
38912;BME280;28444;48.056;14.408;2023-05-10T06:16:32;97132.50;;;11.51;83.33
38912;BME280;28444;48.056;14.408;2023-05-10T06:19:19;97137.53;;;11.64;83.55
38912;BME280;28444;48.056;14.408;2023-05-10T06:22:06;97127.75;;;11.61;83.61
38912;BME280;28444;48.056;14.408;2023-05-10T06:24:53;97133.81;;;11.69;84.91
38912;BME280;28444;48.056;14.408;2023-05-10T06:27:40;97129.03;;;11.70;86.41
38912;BME280;28444;48.056;14.408;2023-05-10T06:30:27;97127.16;;;11.72;86.54
38912;BME280;28444;48.056;14.408;2023-05-10T06:33:16;97132.06;;;11.74;87.21
38912;BME280;28444;48.056;14.408;2023-05-10T06:36:03;97136.22;;;11.75;89.44
38912;BME280;28444;48.056;14.408;2023-05-10T06:38:49;97141.59;;;11.63;90.30
38912;BME280;28444;48.056;14.408;2023-05-10T06:41:37;97133.50;;;11.65;90.13
38912;BME280;28444;48.056;14.408;2023-05-10T06:44:24;97136.81;;;11.73;90.74
38912;BME280;28444;48.056;14.408;2023-05-10T06:47:12;97141.72;;;11.85;90.71
38912;BME280;28444;48.056;14.408;2023-05-10T06:49:59;97140.41;;;11.95;91.34
38912;BME280;28444;48.056;14.408;2023-05-10T06:52:46;97140.50;;;11.97;92.04
38912;BME280;28444;48.056;14.408;2023-05-10T06:55:32;97139.72;;;12.16;91.13
38912;BME280;28444;48.056;14.408;2023-05-10T06:58:19;97141.41;;;12.31;89.90
38912;BME280;28444;48.056;14.408;2023-05-10T07:01:06;97139.56;;;12.24;90.39
38912;BME280;28444;48.056;14.408;2023-05-10T07:03:53;97143.22;;;12.17;91.11
38912;BME280;28444;48.056;14.408;2023-05-10T07:06:40;97152.28;;;12.19;92.18
38912;BME280;28444;48.056;14.408;2023-05-10T07:09:27;97148.09;;;12.18;90.36
38912;BME280;28444;48.056;14.408;2023-05-10T07:12:14;97157.19;;;12.21;89.85
38912;BME280;28444;48.056;14.408;2023-05-10T07:15:02;97154.44;;;12.21;89.06
38912;BME280;28444;48.056;14.408;2023-05-10T07:17:49;97155.78;;;12.10;88.13
38912;BME280;28444;48.056;14.408;2023-05-10T07:20:36;97156.34;;;12.09;88.53
38912;BME280;28444;48.056;14.408;2023-05-10T07:23:23;97160.97;;;12.06;88.87
38912;BME280;28444;48.056;14.408;2023-05-10T07:26:10;97159.25;;;12.01;89.90
38912;BME280;28444;48.056;14.408;2023-05-10T07:28:58;97162.66;;;12.21;90.51
38912;BME280;28444;48.056;14.408;2023-05-10T07:31:45;97154.81;;;12.37;89.71
38912;BME280;28444;48.056;14.408;2023-05-10T07:34:32;97159.06;;;12.18;89.56
38912;BME280;28444;48.056;14.408;2023-05-10T07:37:18;97158.44;;;12.29;90.02
38912;BME280;28444;48.056;14.408;2023-05-10T07:40:06;97163.44;;;12.43;89.86
38912;BME280;28444;48.056;14.408;2023-05-10T07:42:53;97167.06;;;12.36;90.76
38912;BME280;28444;48.056;14.408;2023-05-10T07:45:40;97159.91;;;12.52;90.94
38912;BME280;28444;48.056;14.408;2023-05-10T07:48:27;97164.16;;;12.43;91.58
38912;BME280;28444;48.056;14.408;2023-05-10T07:51:14;97167.81;;;12.26;93.18
38912;BME280;28444;48.056;14.408;2023-05-10T07:54:01;97168.72;;;12.19;95.09
38912;BME280;28444;48.056;14.408;2023-05-10T07:56:49;97169.84;;;12.26;96.47
38912;BME280;28444;48.056;14.408;2023-05-10T07:59:35;97170.50;;;12.46;96.09
38912;BME280;28444;48.056;14.408;2023-05-10T08:02:23;97169.09;;;12.66;95.57
38912;BME280;28444;48.056;14.408;2023-05-10T08:05:10;97162.44;;;12.69;96.76
38912;BME280;28444;48.056;14.408;2023-05-10T08:07:57;97160.56;;;12.93;95.66
38912;BME280;28444;48.056;14.408;2023-05-10T08:10:44;97175.72;;;13.16;94.03
38912;BME280;28444;48.056;14.408;2023-05-10T08:13:31;97167.56;;;13.28;90.71
38912;BME280;28444;48.056;14.408;2023-05-10T08:16:18;97174.81;;;13.44;93.02
38912;BME280;28444;48.056;14.408;2023-05-10T08:19:05;97174.44;;;13.50;93.46
38912;BME280;28444;48.056;14.408;2023-05-10T08:21:52;97182.63;;;13.60;92.69
38912;BME280;28444;48.056;14.408;2023-05-10T08:24:39;97180.19;;;13.54;93.06
38912;BME280;28444;48.056;14.408;2023-05-10T08:27:28;97177.63;;;13.68;93.30
38912;BME280;28444;48.056;14.408;2023-05-10T08:30:15;97181.00;;;13.78;92.48
38912;BME280;28444;48.056;14.408;2023-05-10T08:33:02;97184.38;;;13.88;92.74
38912;BME280;28444;48.056;14.408;2023-05-10T08:35:49;97189.31;;;14.02;93.60
38912;BME280;28444;48.056;14.408;2023-05-10T08:38:37;97183.44;;;14.07;91.45
38912;BME280;28444;48.056;14.408;2023-05-10T08:41:24;97180.69;;;14.07;91.26
38912;BME280;28444;48.056;14.408;2023-05-10T08:44:12;97184.88;;;13.96;90.41
38912;BME280;28444;48.056;14.408;2023-05-10T08:47:02;97189.03;;;13.97;92.97
38912;BME280;28444;48.056;14.408;2023-05-10T08:49:51;97196.22;;;13.91;94.81
38912;BME280;28444;48.056;14.408;2023-05-10T08:52:40;97200.84;;;13.77;93.09
38912;BME280;28444;48.056;14.408;2023-05-10T08:55:27;97200.72;;;13.53;95.79
38912;BME280;28444;48.056;14.408;2023-05-10T08:58:14;97213.19;;;13.33;97.28
38912;BME280;28444;48.056;14.408;2023-05-10T09:01:01;97209.00;;;13.32;96.24
38912;BME280;28444;48.056;14.408;2023-05-10T09:03:49;97205.06;;;13.35;99.26
38912;BME280;28444;48.056;14.408;2023-05-10T09:06:37;97207.81;;;13.35;97.93
38912;BME280;28444;48.056;14.408;2023-05-10T09:09:25;97210.25;;;13.40;96.93
38912;BME280;28444;48.056;14.408;2023-05-10T09:12:13;97217.28;;;13.22;99.90
38912;BME280;28444;48.056;14.408;2023-05-10T09:15:03;97217.75;;;13.18;100.00
38912;BME280;28444;48.056;14.408;2023-05-10T09:17:52;97214.13;;;12.94;100.00
38912;BME280;28444;48.056;14.408;2023-05-10T09:20:40;97227.19;;;12.84;100.00
38912;BME280;28444;48.056;14.408;2023-05-10T09:23:27;97221.38;;;12.90;100.00
38912;BME280;28444;48.056;14.408;2023-05-10T09:26:22;97220.47;;;12.97;100.00
38912;BME280;28444;48.056;14.408;2023-05-10T09:29:10;97217.34;;;12.91;100.00
38912;BME280;28444;48.056;14.408;2023-05-10T09:31:57;97219.91;;;13.20;100.00
38912;BME280;28444;48.056;14.408;2023-05-10T09:34:44;97211.06;;;13.43;100.00
38912;BME280;28444;48.056;14.408;2023-05-10T09:37:31;97211.00;;;13.86;100.00
38912;BME280;28444;48.056;14.408;2023-05-10T09:40:20;97205.94;;;14.15;96.12
38912;BME280;28444;48.056;14.408;2023-05-10T09:43:07;97206.47;;;14.59;98.46
38912;BME280;28444;48.056;14.408;2023-05-10T09:45:54;97203.50;;;14.78;93.37
38912;BME280;28444;48.056;14.408;2023-05-10T09:48:43;97199.59;;;15.19;93.62
38912;BME280;28444;48.056;14.408;2023-05-10T09:51:30;97197.59;;;15.45;92.28
38912;BME280;28444;48.056;14.408;2023-05-10T09:54:21;97199.13;;;15.48;91.45
38912;BME280;28444;48.056;14.408;2023-05-10T09:57:19;97194.69;;;15.54;88.82
38912;BME280;28444;48.056;14.408;2023-05-10T10:00:07;97195.63;;;15.59;90.96
38912;BME280;28444;48.056;14.408;2023-05-10T10:02:58;97194.78;;;15.56;88.92
38912;BME280;28444;48.056;14.408;2023-05-10T10:05:47;97199.94;;;15.50;88.55
38912;BME280;28444;48.056;14.408;2023-05-10T10:08:34;97195.53;;;15.45;89.05
38912;BME280;28444;48.056;14.408;2023-05-10T10:11:21;97194.75;;;15.31;90.18
38912;BME280;28444;48.056;14.408;2023-05-10T10:14:11;97195.38;;;15.17;91.35
38912;BME280;28444;48.056;14.408;2023-05-10T10:17:00;97194.66;;;15.17;91.54
38912;BME280;28444;48.056;14.408;2023-05-10T10:19:50;97194.44;;;15.13;92.10
38912;BME280;28444;48.056;14.408;2023-05-10T10:22:37;97192.72;;;14.82;94.48
38912;BME280;28444;48.056;14.408;2023-05-10T10:25:24;97196.91;;;14.60;96.02
38912;BME280;28444;48.056;14.408;2023-05-10T10:31:26;97199.78;;;14.50;97.25
38912;BME280;28444;48.056;14.408;2023-05-10T10:34:32;97190.78;;;14.38;97.91
38912;BME280;28444;48.056;14.408;2023-05-10T10:37:19;97194.28;;;14.50;98.08
38912;BME280;28444;48.056;14.408;2023-05-10T10:49:09;97191.63;;;14.87;99.20
38912;BME280;28444;48.056;14.408;2023-05-10T10:52:20;97196.28;;;14.73;98.15
38912;BME280;28444;48.056;14.408;2023-05-10T10:55:13;97195.22;;;14.66;98.94
38912;BME280;28444;48.056;14.408;2023-05-10T10:58:00;97194.63;;;14.68;99.24
38912;BME280;28444;48.056;14.408;2023-05-10T11:00:47;97198.47;;;14.75;98.65
38912;BME280;28444;48.056;14.408;2023-05-10T11:03:34;97194.84;;;14.84;97.66
38912;BME280;28444;48.056;14.408;2023-05-10T11:06:35;97189.59;;;15.00;97.41
38912;BME280;28444;48.056;14.408;2023-05-10T11:09:24;97186.66;;;15.09;95.23
38912;BME280;28444;48.056;14.408;2023-05-10T11:12:11;97194.00;;;14.93;96.01
38912;BME280;28444;48.056;14.408;2023-05-10T11:14:58;97201.91;;;14.87;96.17
38912;BME280;28444;48.056;14.408;2023-05-10T11:17:45;97204.06;;;14.88;97.64
38912;BME280;28444;48.056;14.408;2023-05-10T11:20:39;97192.34;;;15.00;95.77
38912;BME280;28444;48.056;14.408;2023-05-10T11:26:34;97199.59;;;15.19;94.73
38912;BME280;28444;48.056;14.408;2023-05-10T11:29:22;97196.84;;;15.19;94.58
38912;BME280;28444;48.056;14.408;2023-05-10T11:32:09;97198.25;;;15.20;94.35
38912;BME280;28444;48.056;14.408;2023-05-10T11:34:56;97208.22;;;15.13;94.27
38912;BME280;28444;48.056;14.408;2023-05-10T11:37:47;97213.88;;;15.03;96.81
38912;BME280;28444;48.056;14.408;2023-05-10T11:40:35;97214.09;;;14.96;98.67
38912;BME280;28444;48.056;14.408;2023-05-10T11:43:23;97218.19;;;14.83;100.00
38912;BME280;28444;48.056;14.408;2023-05-10T11:46:15;97222.16;;;14.68;99.87
38912;BME280;28444;48.056;14.408;2023-05-10T11:49:02;97219.88;;;14.64;100.00
38912;BME280;28444;48.056;14.408;2023-05-10T11:52:03;97219.63;;;14.72;100.00
38912;BME280;28444;48.056;14.408;2023-05-10T11:54:51;97220.00;;;14.90;100.00
38912;BME280;28444;48.056;14.408;2023-05-10T11:57:38;97222.13;;;14.91;100.00
38912;BME280;28444;48.056;14.408;2023-05-10T12:00:28;97214.19;;;15.09;98.75
38912;BME280;28444;48.056;14.408;2023-05-10T12:03:15;97215.09;;;15.37;94.12
38912;BME280;28444;48.056;14.408;2023-05-10T12:06:03;97213.31;;;15.30;96.06
38912;BME280;28444;48.056;14.408;2023-05-10T12:08:50;97217.22;;;15.51;96.67
38912;BME280;28444;48.056;14.408;2023-05-10T12:11:40;97217.44;;;15.55;97.16
38912;BME280;28444;48.056;14.408;2023-05-10T12:14:34;97223.22;;;15.47;95.99
38912;BME280;28444;48.056;14.408;2023-05-10T12:17:21;97217.00;;;15.35;97.41
38912;BME280;28444;48.056;14.408;2023-05-10T12:20:15;97221.97;;;15.62;95.79
38912;BME280;28444;48.056;14.408;2023-05-10T12:23:03;97222.94;;;15.55;95.25
38912;BME280;28444;48.056;14.408;2023-05-10T12:25:50;97227.47;;;15.62;96.26
38912;BME280;28444;48.056;14.408;2023-05-10T12:28:40;97225.09;;;15.56;96.36
38912;BME280;28444;48.056;14.408;2023-05-10T12:31:27;97215.63;;;15.59;94.49
38912;BME280;28444;48.056;14.408;2023-05-10T12:37:24;97222.94;;;15.55;94.82
38912;BME280;28444;48.056;14.408;2023-05-10T12:40:10;97224.75;;;15.50;91.78
38912;BME280;28444;48.056;14.408;2023-05-10T12:42:58;97224.50;;;15.58;92.35
38912;BME280;28444;48.056;14.408;2023-05-10T12:45:45;97229.19;;;15.55;95.12
38912;BME280;28444;48.056;14.408;2023-05-10T12:48:36;97229.31;;;15.46;92.85
38912;BME280;28444;48.056;14.408;2023-05-10T12:51:23;97235.31;;;15.42;92.99
38912;BME280;28444;48.056;14.408;2023-05-10T12:54:10;97236.28;;;15.35;92.73
38912;BME280;28444;48.056;14.408;2023-05-10T12:56:57;97228.47;;;15.43;94.26
38912;BME280;28444;48.056;14.408;2023-05-10T12:59:44;97228.38;;;15.41;93.29
38912;BME280;28444;48.056;14.408;2023-05-10T13:02:30;97229.09;;;15.41;92.23
38912;BME280;28444;48.056;14.408;2023-05-10T13:05:17;97229.34;;;15.34;94.04
38912;BME280;28444;48.056;14.408;2023-05-10T13:08:04;97238.25;;;15.32;94.19
38912;BME280;28444;48.056;14.408;2023-05-10T13:10:52;97227.44;;;15.36;93.95
38912;BME280;28444;48.056;14.408;2023-05-10T13:13:39;97230.44;;;15.40;96.01
38912;BME280;28444;48.056;14.408;2023-05-10T13:16:26;97232.44;;;15.52;94.32
38912;BME280;28444;48.056;14.408;2023-05-10T13:19:13;97226.91;;;15.52;95.29
38912;BME280;28444;48.056;14.408;2023-05-10T13:22:00;97231.94;;;15.55;94.43
38912;BME280;28444;48.056;14.408;2023-05-10T13:24:47;97235.28;;;15.54;94.18
38912;BME280;28444;48.056;14.408;2023-05-10T13:27:34;97240.91;;;15.56;93.76
38912;BME280;28444;48.056;14.408;2023-05-10T13:30:21;97230.50;;;15.54;92.15
38912;BME280;28444;48.056;14.408;2023-05-10T13:33:10;97224.03;;;15.50;91.12
38912;BME280;28444;48.056;14.408;2023-05-10T13:35:57;97223.59;;;15.41;92.42
38912;BME280;28444;48.056;14.408;2023-05-10T13:38:44;97222.88;;;15.41;93.38
38912;BME280;28444;48.056;14.408;2023-05-10T13:41:31;97219.91;;;15.37;94.72
38912;BME280;28444;48.056;14.408;2023-05-10T13:44:17;97221.53;;;15.42;93.72
38912;BME280;28444;48.056;14.408;2023-05-10T13:47:05;97205.38;;;15.48;92.64
38912;BME280;28444;48.056;14.408;2023-05-10T13:49:52;97216.47;;;15.50;92.93
38912;BME280;28444;48.056;14.408;2023-05-10T13:52:38;97203.94;;;15.47;94.87
38912;BME280;28444;48.056;14.408;2023-05-10T13:55:26;97211.84;;;15.41;93.83
38912;BME280;28444;48.056;14.408;2023-05-10T13:58:13;97215.94;;;15.40;93.46
38912;BME280;28444;48.056;14.408;2023-05-10T14:00:59;97212.13;;;15.33;94.32
38912;BME280;28444;48.056;14.408;2023-05-10T14:03:46;97209.94;;;15.32;95.44
38912;BME280;28444;48.056;14.408;2023-05-10T14:06:33;97204.72;;;15.24;95.98
38912;BME280;28444;48.056;14.408;2023-05-10T14:09:20;97212.47;;;15.28;96.02
38912;BME280;28444;48.056;14.408;2023-05-10T14:12:07;97205.81;;;15.19;94.68
38912;BME280;28444;48.056;14.408;2023-05-10T14:14:54;97207.09;;;15.30;94.05
38912;BME280;28444;48.056;14.408;2023-05-10T14:17:41;97205.91;;;15.21;94.63
38912;BME280;28444;48.056;14.408;2023-05-10T14:20:28;97203.91;;;15.22;95.68
38912;BME280;28444;48.056;14.408;2023-05-10T14:23:15;97201.25;;;15.24;95.78
38912;BME280;28444;48.056;14.408;2023-05-10T14:26:02;97199.69;;;15.21;96.83
38912;BME280;28444;48.056;14.408;2023-05-10T14:28:49;97194.66;;;15.17;97.63
38912;BME280;28444;48.056;14.408;2023-05-10T14:31:36;97198.13;;;15.17;97.76
38912;BME280;28444;48.056;14.408;2023-05-10T14:34:23;97197.53;;;15.19;96.76
38912;BME280;28444;48.056;14.408;2023-05-10T14:37:11;97194.53;;;15.27;95.92
38912;BME280;28444;48.056;14.408;2023-05-10T14:39:58;97203.25;;;15.35;96.76
38912;BME280;28444;48.056;14.408;2023-05-10T14:42:45;97191.91;;;15.29;95.59
38912;BME280;28444;48.056;14.408;2023-05-10T14:45:32;97193.47;;;15.20;95.79
38912;BME280;28444;48.056;14.408;2023-05-10T14:48:19;97197.69;;;15.09;96.17
38912;BME280;28444;48.056;14.408;2023-05-10T14:51:07;97198.31;;;14.96;96.59
38912;BME280;28444;48.056;14.408;2023-05-10T14:53:54;97196.13;;;15.06;96.57
38912;BME280;28444;48.056;14.408;2023-05-10T14:56:41;97203.09;;;14.96;96.70
38912;BME280;28444;48.056;14.408;2023-05-10T14:59:28;97188.75;;;14.97;97.21
38912;BME280;28444;48.056;14.408;2023-05-10T15:02:15;97196.53;;;14.89;96.67
38912;BME280;28444;48.056;14.408;2023-05-10T15:05:03;97199.88;;;14.87;97.01
38912;BME280;28444;48.056;14.408;2023-05-10T15:07:51;97198.06;;;14.92;95.84
38912;BME280;28444;48.056;14.408;2023-05-10T15:10:38;97202.16;;;14.91;94.57
38912;BME280;28444;48.056;14.408;2023-05-10T15:13:25;97202.28;;;14.93;95.70